HOURLY OBSERVATIONS


Time
(EST)
Temperature
°F
Dew Point
°F
Humidity
%
Wind
mph
Pressure
mb
Precip.
Hour
in
Precip.
Day
in
6 Hr
Max Temp
°F
6 Hr
Min Temp
°F
19 07:00 62 58 88 SSE 6 G 11 1014.3 0.01 63 61
19 06:00 61 58 88 SSE 5 G 11 1014.1 0.01
19 05:00 62 58 87 SE 3 G 14 1014.1 0.01
19 04:00 63 59 87 SSE 4 G 12 1014.0 0.01
19 03:00 63 58 85 SSE 4 G 12 1014.0 0.01
19 02:00 63 59 87 S 4 G 11 1014.6 0.01
19 01:00 63 59 88 SE 3 G 11 1015.0 0.01 0.01 73 63
19 00:00 65 60 84 SE 4 G 10 1015.7 0.00
18 23:00 67 60 78 ESE 4 G 11 1016.0 0.00
18 22:00 68 60 75 SE 4 G 12 1016.3 0.00
18 21:00 69 60 73 E 5 G 12 1016.3 0.00
18 20:00 71 60 69 E 7 G 20 1016.2 0.00
18 19:00 73 60 65 ESE 4 G 14 1016.2 0.00 79 73
18 18:00 74 61 63 SE 5 G 18 1016.1 0.00
18 17:00 76 62 62 SSE 5 G 15 1016.1 0.00
18 16:00 77 63 62 E 2 G 13 1016.1 0.00
18 15:00 78 60 55 SE 5 G 18 1016.5 0.00
18 14:00 77 60 56 E 5 G 16 1016.6 0.00
18 13:00 77 62 60 NE 3 G 13 1017.4 0.00 77 65
18 12:00 77 61 59 ESE 4 G 18 1018.2 0.00
18 11:00 76 60 58 SE 7 G 14 1018.6 0.00
18 10:00 74 61 64 E 5 G 20 1018.8 0.00
18 09:00 73 61 66 E 4 G 16 1018.6 0.00
18 08:00 68 59 74 E 4 G 9 1018.6 0.00
18 07:00 65 58 78 ENE 4 G 12 1018.2 0.00 65 63
18 06:00 63 56 79 ENE 3 G 6 1017.6 0.00
18 05:00 63 56 77 ENE 3 G 8 1017.0 0.00
18 04:00 64 56 75 E 3 G 8 1016.7 0.00
18 03:00 64 55 73 NE 2 G 7 1016.8 0.00
18 02:00 64 55 73 ENE 2 G 5 1016.9 0.00
18 01:00 64 55 73 ENE 2 G 5 1017.3 0.00 76 64
18 00:00 64 55 71 NNE 1 G 3 1017.8 0.00
17 23:00 65 55 69 NNE 2 G 5 1017.8 0.00
17 22:00 67 55 66 NNE 2 G 4 1017.7 0.00
17 21:00 69 55 63 NNE 2 G 6 1016.9 0.00
17 20:00 72 56 58 NE 2 G 9 1016.3 0.00
17 19:00 76 58 54 N 1 G 11 1015.5 0.00 82 76
17 18:00 80 57 45 NE 3 G 8 1014.7 0.00
17 17:00 81 55 41 ENE 4 G 12 1014.7 0.00
17 16:00 82 55 40 NE 4 G 13 1014.6 0.00
17 15:00 82 54 39 NNE 6 G 14 1014.9 0.00
17 14:00 82 52 36 NNE 2 G 11 1015.1 0.00
17 13:00 81 57 44 E 3 G 8 1015.5 0.00 81 62
17 12:00 79 56 45 ENE 4 G 13 1015.8 0.00
17 11:00 77 61 57 ENE 4 G 12 1015.8 0.00
17 10:00 75 63 66 E 6 G 11 1015.8 0.00
17 09:00 74 63 70 ENE 3 G 7 1015.7 0.00
17 08:00 67 61 80 ENE 1 G 3 1015.5 0.00
17 07:00 62 57 84 ENE 2 G 4 1015.2 0.00 62 59
17 06:00 59 54 83 NNE 2 G 5 1014.6 0.00
17 05:00 59 54 83 NE 3 G 5 1014.0 0.00
17 04:00 60 55 82 NE 1 G 4 1013.7 0.00
17 03:00 61 54 80 NNE 0 G 4 1013.6 0.00
17 02:00 62 55 79 Calm 1013.8 0.00
17 01:00 62 55 78 Calm 1014.0 0.00 72 62
17 00:00 63 55 76 Calm 1013.9 0.01
16 23:00 64 56 76 NNE 0 G 4 1014.1 0.01
16 22:00 65 55 72 NNE 0 G 4 1014.1 0.01
16 21:00 66 55 68 NNE 0 G 4 1014.0 0.01
16 20:00 69 58 67 N 2 G 5 1013.4 0.01
16 19:00 72 62 72 Calm 1013.0 0.01 75 72
16 18:00 74 62 68 Calm 1012.8 0.01 0.01
16 17:00 75 62 64 E 1 G 5 1013.1 0.00
16 16:00 75 61 62 ENE 2 G 5 1013.1 0.00
16 15:00 74 62 68 ENE 3 G 6 1013.4 0.00
16 14:00 74 62 67 SSE 0 G 2 1013.8 0.00
16 13:00 74 61 66 E 4 G 6 1014.4 0.00 74 59
16 12:00 73 62 70 E 4 G 7 1014.8 0.00
16 11:00 71 62 75 N 1 G 6 1015.0 0.00
16 10:00 69 61 77 NE 1 G 4 1015.0 0.00
16 09:00 68 60 77 E 0 G 5 1015.2 0.00
16 08:00 64 58 82 E 4 G 6 1015.1 0.00